Ana Sayfa
METAR-TAF:

METAR-TAF

Havaalanları :

Caro, Michigan, Amerika Birleşik Devletleri

Enlem: 43-27-31N, Boylam: 083-26-43W, yükseklik: 214 m

Güncel hava durumu gözlemi

Rapor saat 12:37 UTC de 12 dakika önce yapıldı.
Rüzgar güneybatıdan 7 kt
Sıcaklık 28°C
Nem 84%
Basınç 1010 hPa
Görüş mesafesi: 16.1 km
1400 ft yükseklikte parçalı bulutlu
2900 ft yükseklikte parçalı çok bulutlu
4600 ft yükseklikte parçalı çok bulutlu

METAR: KCFS 191237Z AUTO 23007KT 10SM SCT014 BKN029 BKN046 28/25 A2982 RMK AO2 T02760245

Saat: 08:49 (12:49 UTC)


TAF: eksik

4.000'den fazla havaalanı için hava durumu gözlemleri ve tahminleri (METAR ve TAF raporları).

Kullanılabilir istasyonlar harita üzerinde sarı ve kırmızı noktalarla gösterilir.

İstasyonun adını görmek için fareyi noktanın üzerinde gezdirin.

Sonrasında hava gözlem ve tahminlerini görmek için tıklayın.

Haritayı değiştirmek için: yaklaştırmak için siyah artı işaretli yeşil düğmeye ve uzaklaştırmak için de eksi işaretli düğmeye hızla tıklayın; bitişik haritalar için yeşil okları kullanın.


METAR-TAF: